Aviation Digital Data Service (ADDS)

Output produced by METARs form (0516 UTC 27 November 2014)
found at http://www.aviationweather.gov/adds/metars/
 
KDEN 270305Z 2703/2806 21006KT P6SM FEW150 
     FM270600 22012KT P6SM SCT200 
     FM271400 23012KT P6SM SCT110 BKN200 
     FM272100 25010KT P6SM FEW110 SCT200 
     FM280100 21011KT P6SM SCT200